sensor_id;sensor_type;location;lat;lon;timestamp;P1;durP1;ratioP1;P2;durP2;ratioP2
54201;SDS011;40108;53.152;5.844;2024-01-15T00:01:17;11.73;;;1.58;;
54201;SDS011;40108;53.152;5.844;2024-01-15T00:03:44;14.73;;;1.95;;
54201;SDS011;40108;53.152;5.844;2024-01-15T00:06:09;10.90;;;1.65;;
54201;SDS011;40108;53.152;5.844;2024-01-15T00:08:35;11.77;;;1.67;;
54201;SDS011;40108;53.152;5.844;2024-01-15T00:11:01;16.65;;;1.70;;
54201;SDS011;40108;53.152;5.844;2024-01-15T00:13:26;17.60;;;1.92;;
54201;SDS011;40108;53.152;5.844;2024-01-15T00:15:52;14.98;;;2.00;;
54201;SDS011;40108;53.152;5.844;2024-01-15T00:18:18;15.10;;;1.98;;
54201;SDS011;40108;53.152;5.844;2024-01-15T00:20:44;21.88;;;3.08;;
54201;SDS011;40108;53.152;5.844;2024-01-15T00:23:10;20.88;;;2.17;;
54201;SDS011;40108;53.152;5.844;2024-01-15T00:25:36;20.20;;;2.38;;
54201;SDS011;40108;53.152;5.844;2024-01-15T00:28:02;20.05;;;2.35;;
54201;SDS011;40108;53.152;5.844;2024-01-15T00:30:28;21.83;;;2.45;;
54201;SDS011;40108;53.152;5.844;2024-01-15T00:32:53;17.42;;;2.33;;
54201;SDS011;40108;53.152;5.844;2024-01-15T00:35:19;16.20;;;1.83;;
54201;SDS011;40108;53.152;5.844;2024-01-15T00:37:45;20.92;;;2.63;;
54201;SDS011;40108;53.152;5.844;2024-01-15T00:40:10;14.68;;;1.55;;
54201;SDS011;40108;53.152;5.844;2024-01-15T00:42:36;18.77;;;2.58;;
54201;SDS011;40108;53.152;5.844;2024-01-15T00:45:02;19.40;;;2.53;;
54201;SDS011;40108;53.152;5.844;2024-01-15T00:47:30;25.20;;;3.15;;
54201;SDS011;40108;53.152;5.844;2024-01-15T00:49:56;12.25;;;1.83;;
54201;SDS011;40108;53.152;5.844;2024-01-15T00:52:21;7.97;;;1.02;;
54201;SDS011;40108;53.152;5.844;2024-01-15T00:54:47;5.95;;;0.70;;
54201;SDS011;40108;53.152;5.844;2024-01-15T00:57:12;7.70;;;0.95;;
54201;SDS011;40108;53.152;5.844;2024-01-15T00:59:38;4.60;;;0.73;;
54201;SDS011;40108;53.152;5.844;2024-01-15T01:02:04;10.90;;;0.88;;
54201;SDS011;40108;53.152;5.844;2024-01-15T01:04:29;9.60;;;1.00;;
54201;SDS011;40108;53.152;5.844;2024-01-15T01:06:55;10.73;;;1.35;;
54201;SDS011;40108;53.152;5.844;2024-01-15T01:09:21;13.10;;;1.30;;
54201;SDS011;40108;53.152;5.844;2024-01-15T01:11:47;15.10;;;1.52;;
54201;SDS011;40108;53.152;5.844;2024-01-15T01:14:12;16.50;;;1.55;;
54201;SDS011;40108;53.152;5.844;2024-01-15T01:16:38;10.30;;;1.75;;
54201;SDS011;40108;53.152;5.844;2024-01-15T01:19:04;10.80;;;1.15;;
54201;SDS011;40108;53.152;5.844;2024-01-15T01:21:31;19.70;;;2.15;;
54201;SDS011;40108;53.152;5.844;2024-01-15T01:23:57;18.42;;;2.45;;
54201;SDS011;40108;53.152;5.844;2024-01-15T01:26:23;12.68;;;2.00;;
54201;SDS011;40108;53.152;5.844;2024-01-15T01:28:49;19.27;;;1.85;;
54201;SDS011;40108;53.152;5.844;2024-01-15T01:31:15;16.05;;;2.83;;
54201;SDS011;40108;53.152;5.844;2024-01-15T01:33:41;19.65;;;2.05;;
54201;SDS011;40108;53.152;5.844;2024-01-15T01:36:10;25.73;;;3.05;;
54201;SDS011;40108;53.152;5.844;2024-01-15T01:38:36;24.55;;;3.15;;
54201;SDS011;40108;53.152;5.844;2024-01-15T01:41:02;29.58;;;2.20;;
54201;SDS011;40108;53.152;5.844;2024-01-15T01:43:28;28.20;;;2.50;;
54201;SDS011;40108;53.152;5.844;2024-01-15T01:45:54;22.45;;;2.08;;
54201;SDS011;40108;53.152;5.844;2024-01-15T01:48:23;25.98;;;2.38;;
54201;SDS011;40108;53.152;5.844;2024-01-15T01:50:51;20.42;;;2.42;;
54201;SDS011;40108;53.152;5.844;2024-01-15T01:53:22;24.10;;;2.40;;
54201;SDS011;40108;53.152;5.844;2024-01-15T01:55:48;20.27;;;2.40;;
54201;SDS011;40108;53.152;5.844;2024-01-15T01:58:15;26.77;;;3.35;;
54201;SDS011;40108;53.152;5.844;2024-01-15T02:00:40;20.90;;;2.38;;
54201;SDS011;40108;53.152;5.844;2024-01-15T02:03:06;17.95;;;2.00;;
54201;SDS011;40108;53.152;5.844;2024-01-15T02:05:33;17.95;;;2.55;;
54201;SDS011;40108;53.152;5.844;2024-01-15T02:08:01;20.50;;;3.08;;
54201;SDS011;40108;53.152;5.844;2024-01-15T02:10:26;20.92;;;2.83;;
54201;SDS011;40108;53.152;5.844;2024-01-15T02:12:52;20.08;;;2.40;;
54201;SDS011;40108;53.152;5.844;2024-01-15T02:15:18;35.15;;;3.25;;
54201;SDS011;40108;53.152;5.844;2024-01-15T02:17:59;19.23;;;2.33;;
54201;SDS011;40108;53.152;5.844;2024-01-15T02:20:26;28.13;;;2.83;;
54201;SDS011;40108;53.152;5.844;2024-01-15T02:22:52;26.90;;;2.72;;
54201;SDS011;40108;53.152;5.844;2024-01-15T02:25:18;22.10;;;2.10;;
54201;SDS011;40108;53.152;5.844;2024-01-15T02:27:44;22.77;;;2.45;;
54201;SDS011;40108;53.152;5.844;2024-01-15T02:30:12;18.38;;;2.70;;
54201;SDS011;40108;53.152;5.844;2024-01-15T02:32:38;20.70;;;2.40;;
54201;SDS011;40108;53.152;5.844;2024-01-15T02:35:04;21.85;;;2.30;;
54201;SDS011;40108;53.152;5.844;2024-01-15T02:37:30;22.90;;;2.22;;
54201;SDS011;40108;53.152;5.844;2024-01-15T02:39:55;20.67;;;2.47;;
54201;SDS011;40108;53.152;5.844;2024-01-15T02:42:21;20.15;;;2.25;;
54201;SDS011;40108;53.152;5.844;2024-01-15T02:44:47;12.40;;;1.70;;
54201;SDS011;40108;53.152;5.844;2024-01-15T02:47:14;10.90;;;2.05;;
54201;SDS011;40108;53.152;5.844;2024-01-15T02:49:39;10.60;;;1.40;;
54201;SDS011;40108;53.152;5.844;2024-01-15T02:52:05;9.77;;;1.30;;
54201;SDS011;40108;53.152;5.844;2024-01-15T02:54:31;7.78;;;1.08;;
54201;SDS011;40108;53.152;5.844;2024-01-15T02:56:57;10.98;;;1.00;;
54201;SDS011;40108;53.152;5.844;2024-01-15T02:59:22;14.32;;;1.40;;
54201;SDS011;40108;53.152;5.844;2024-01-15T03:01:48;9.27;;;0.93;;
54201;SDS011;40108;53.152;5.844;2024-01-15T03:04:14;13.88;;;1.60;;
54201;SDS011;40108;53.152;5.844;2024-01-15T03:06:39;18.05;;;2.75;;
54201;SDS011;40108;53.152;5.844;2024-01-15T03:09:05;19.13;;;1.98;;
54201;SDS011;40108;53.152;5.844;2024-01-15T03:11:37;15.68;;;1.80;;
54201;SDS011;40108;53.152;5.844;2024-01-15T03:14:03;19.15;;;2.53;;
54201;SDS011;40108;53.152;5.844;2024-01-15T03:16:29;15.32;;;2.42;;
54201;SDS011;40108;53.152;5.844;2024-01-15T03:18:55;12.73;;;1.70;;
54201;SDS011;40108;53.152;5.844;2024-01-15T03:21:20;14.63;;;1.98;;
54201;SDS011;40108;53.152;5.844;2024-01-15T03:23:46;20.25;;;2.38;;
54201;SDS011;40108;53.152;5.844;2024-01-15T03:26:12;18.08;;;2.63;;
54201;SDS011;40108;53.152;5.844;2024-01-15T03:28:37;17.05;;;1.83;;
54201;SDS011;40108;53.152;5.844;2024-01-15T03:31:03;17.17;;;1.85;;
54201;SDS011;40108;53.152;5.844;2024-01-15T03:33:29;11.90;;;1.52;;
54201;SDS011;40108;53.152;5.844;2024-01-15T03:35:54;12.43;;;1.50;;
54201;SDS011;40108;53.152;5.844;2024-01-15T03:38:20;15.05;;;2.03;;
54201;SDS011;40108;53.152;5.844;2024-01-15T03:40:45;12.77;;;1.65;;
54201;SDS011;40108;53.152;5.844;2024-01-15T03:43:12;9.50;;;1.20;;
54201;SDS011;40108;53.152;5.844;2024-01-15T03:45:37;8.77;;;1.27;;
54201;SDS011;40108;53.152;5.844;2024-01-15T03:48:03;9.35;;;1.55;;
54201;SDS011;40108;53.152;5.844;2024-01-15T03:50:29;17.13;;;2.13;;
54201;SDS011;40108;53.152;5.844;2024-01-15T03:52:54;7.43;;;1.17;;
54201;SDS011;40108;53.152;5.844;2024-01-15T03:55:20;10.43;;;0.93;;
54201;SDS011;40108;53.152;5.844;2024-01-15T03:57:46;6.43;;;0.80;;
54201;SDS011;40108;53.152;5.844;2024-01-15T04:00:12;7.05;;;1.08;;
54201;SDS011;40108;53.152;5.844;2024-01-15T04:02:39;6.05;;;0.80;;
54201;SDS011;40108;53.152;5.844;2024-01-15T04:05:05;6.10;;;0.88;;
54201;SDS011;40108;53.152;5.844;2024-01-15T04:07:30;6.10;;;0.70;;
54201;SDS011;40108;53.152;5.844;2024-01-15T04:09:56;5.57;;;0.85;;
54201;SDS011;40108;53.152;5.844;2024-01-15T04:12:22;9.73;;;1.20;;
54201;SDS011;40108;53.152;5.844;2024-01-15T04:14:47;8.40;;;0.80;;
54201;SDS011;40108;53.152;5.844;2024-01-15T04:17:13;13.07;;;1.33;;
54201;SDS011;40108;53.152;5.844;2024-01-15T04:19:39;14.90;;;2.17;;
54201;SDS011;40108;53.152;5.844;2024-01-15T04:22:05;10.35;;;1.15;;
54201;SDS011;40108;53.152;5.844;2024-01-15T04:24:31;12.10;;;1.80;;
54201;SDS011;40108;53.152;5.844;2024-01-15T04:26:57;17.02;;;1.88;;
54201;SDS011;40108;53.152;5.844;2024-01-15T04:29:23;16.83;;;1.58;;
54201;SDS011;40108;53.152;5.844;2024-01-15T04:31:48;12.30;;;1.60;;
54201;SDS011;40108;53.152;5.844;2024-01-15T04:34:14;11.40;;;1.30;;
54201;SDS011;40108;53.152;5.844;2024-01-15T04:36:40;9.95;;;1.63;;
54201;SDS011;40108;53.152;5.844;2024-01-15T04:39:06;20.45;;;2.20;;
54201;SDS011;40108;53.152;5.844;2024-01-15T04:41:32;25.45;;;2.10;;
54201;SDS011;40108;53.152;5.844;2024-01-15T04:43:58;12.77;;;1.90;;
54201;SDS011;40108;53.152;5.844;2024-01-15T04:46:26;11.93;;;1.55;;
54201;SDS011;40108;53.152;5.844;2024-01-15T04:48:52;14.48;;;1.65;;
54201;SDS011;40108;53.152;5.844;2024-01-15T04:51:17;18.20;;;2.25;;
54201;SDS011;40108;53.152;5.844;2024-01-15T04:53:43;12.75;;;1.92;;
54201;SDS011;40108;53.152;5.844;2024-01-15T04:56:09;17.15;;;2.20;;
54201;SDS011;40108;53.152;5.844;2024-01-15T04:58:35;25.88;;;2.38;;
54201;SDS011;40108;53.152;5.844;2024-01-15T05:01:01;21.52;;;1.98;;
54201;SDS011;40108;53.152;5.844;2024-01-15T05:03:26;12.65;;;2.00;;
54201;SDS011;40108;53.152;5.844;2024-01-15T05:05:52;16.00;;;2.53;;
54201;SDS011;40108;53.152;5.844;2024-01-15T05:08:18;22.25;;;2.60;;
54201;SDS011;40108;53.152;5.844;2024-01-15T05:10:43;16.70;;;1.95;;
54201;SDS011;40108;53.152;5.844;2024-01-15T05:13:10;18.73;;;2.17;;
54201;SDS011;40108;53.152;5.844;2024-01-15T05:15:35;22.77;;;2.50;;
54201;SDS011;40108;53.152;5.844;2024-01-15T05:18:01;23.08;;;3.30;;
54201;SDS011;40108;53.152;5.844;2024-01-15T05:20:26;18.58;;;3.42;;
54201;SDS011;40108;53.152;5.844;2024-01-15T05:22:52;24.42;;;3.88;;
54201;SDS011;40108;53.152;5.844;2024-01-15T05:25:18;17.45;;;3.00;;
54201;SDS011;40108;53.152;5.844;2024-01-15T05:27:43;31.02;;;3.45;;
54201;SDS011;40108;53.152;5.844;2024-01-15T05:30:09;21.08;;;2.40;;
54201;SDS011;40108;53.152;5.844;2024-01-15T05:32:35;24.98;;;2.72;;
54201;SDS011;40108;53.152;5.844;2024-01-15T05:35:01;25.25;;;3.50;;
54201;SDS011;40108;53.152;5.844;2024-01-15T05:37:27;35.33;;;3.55;;
54201;SDS011;40108;53.152;5.844;2024-01-15T05:39:52;23.25;;;2.72;;
54201;SDS011;40108;53.152;5.844;2024-01-15T05:42:18;22.15;;;2.72;;
54201;SDS011;40108;53.152;5.844;2024-01-15T05:44:44;18.25;;;2.53;;
54201;SDS011;40108;53.152;5.844;2024-01-15T05:47:09;27.50;;;2.90;;
54201;SDS011;40108;53.152;5.844;2024-01-15T05:49:35;34.22;;;3.30;;
54201;SDS011;40108;53.152;5.844;2024-01-15T05:52:01;26.25;;;2.63;;
54201;SDS011;40108;53.152;5.844;2024-01-15T05:54:27;20.35;;;2.67;;
54201;SDS011;40108;53.152;5.844;2024-01-15T05:56:52;19.45;;;2.45;;
54201;SDS011;40108;53.152;5.844;2024-01-15T05:59:18;22.98;;;2.42;;
54201;SDS011;40108;53.152;5.844;2024-01-15T06:01:43;30.48;;;2.60;;
54201;SDS011;40108;53.152;5.844;2024-01-15T06:04:09;17.90;;;2.53;;
54201;SDS011;40108;53.152;5.844;2024-01-15T06:06:35;27.08;;;2.40;;
54201;SDS011;40108;53.152;5.844;2024-01-15T06:09:00;19.95;;;2.40;;
54201;SDS011;40108;53.152;5.844;2024-01-15T06:11:33;15.25;;;2.08;;
54201;SDS011;40108;53.152;5.844;2024-01-15T06:13:59;14.40;;;1.73;;
54201;SDS011;40108;53.152;5.844;2024-01-15T06:16:25;10.57;;;1.45;;
54201;SDS011;40108;53.152;5.844;2024-01-15T06:18:51;16.80;;;1.77;;
54201;SDS011;40108;53.152;5.844;2024-01-15T06:21:17;12.77;;;1.75;;
54201;SDS011;40108;53.152;5.844;2024-01-15T06:23:43;11.70;;;1.08;;
54201;SDS011;40108;53.152;5.844;2024-01-15T06:26:11;9.07;;;1.52;;
54201;SDS011;40108;53.152;5.844;2024-01-15T06:28:37;7.22;;;0.98;;
54201;SDS011;40108;53.152;5.844;2024-01-15T06:31:02;9.95;;;1.00;;
54201;SDS011;40108;53.152;5.844;2024-01-15T06:33:28;12.02;;;1.75;;
54201;SDS011;40108;53.152;5.844;2024-01-15T06:35:54;10.35;;;1.13;;
54201;SDS011;40108;53.152;5.844;2024-01-15T06:38:21;10.75;;;1.00;;
54201;SDS011;40108;53.152;5.844;2024-01-15T06:40:46;10.38;;;1.38;;
54201;SDS011;40108;53.152;5.844;2024-01-15T06:43:13;12.73;;;1.10;;
54201;SDS011;40108;53.152;5.844;2024-01-15T06:45:40;9.60;;;1.33;;
54201;SDS011;40108;53.152;5.844;2024-01-15T06:48:06;12.35;;;1.45;;
54201;SDS011;40108;53.152;5.844;2024-01-15T06:50:32;10.23;;;1.55;;
54201;SDS011;40108;53.152;5.844;2024-01-15T06:52:58;11.77;;;1.58;;
54201;SDS011;40108;53.152;5.844;2024-01-15T06:55:24;13.73;;;1.20;;
54201;SDS011;40108;53.152;5.844;2024-01-15T06:57:50;22.05;;;3.67;;
54201;SDS011;40108;53.152;5.844;2024-01-15T07:00:17;16.15;;;2.00;;
54201;SDS011;40108;53.152;5.844;2024-01-15T07:02:44;15.73;;;1.70;;
54201;SDS011;40108;53.152;5.844;2024-01-15T07:05:10;15.10;;;1.80;;
54201;SDS011;40108;53.152;5.844;2024-01-15T07:07:36;15.60;;;2.03;;
54201;SDS011;40108;53.152;5.844;2024-01-15T07:10:02;17.65;;;2.00;;
54201;SDS011;40108;53.152;5.844;2024-01-15T07:12:29;20.25;;;2.10;;
54201;SDS011;40108;53.152;5.844;2024-01-15T07:14:55;18.92;;;2.53;;
54201;SDS011;40108;53.152;5.844;2024-01-15T07:17:21;14.77;;;1.75;;
54201;SDS011;40108;53.152;5.844;2024-01-15T07:19:47;12.73;;;1.75;;
54201;SDS011;40108;53.152;5.844;2024-01-15T07:22:13;14.75;;;2.72;;
54201;SDS011;40108;53.152;5.844;2024-01-15T07:24:40;17.42;;;2.83;;
54201;SDS011;40108;53.152;5.844;2024-01-15T07:27:05;22.23;;;2.40;;
54201;SDS011;40108;53.152;5.844;2024-01-15T07:29:31;21.52;;;2.13;;
54201;SDS011;40108;53.152;5.844;2024-01-15T07:31:58;17.65;;;2.25;;
54201;SDS011;40108;53.152;5.844;2024-01-15T07:34:24;20.02;;;2.90;;
54201;SDS011;40108;53.152;5.844;2024-01-15T07:36:49;18.08;;;2.20;;
54201;SDS011;40108;53.152;5.844;2024-01-15T07:39:15;16.35;;;1.95;;
54201;SDS011;40108;53.152;5.844;2024-01-15T07:41:41;21.73;;;2.45;;
54201;SDS011;40108;53.152;5.844;2024-01-15T07:44:07;13.98;;;1.85;;
54201;SDS011;40108;53.152;5.844;2024-01-15T07:46:33;9.45;;;1.33;;
54201;SDS011;40108;53.152;5.844;2024-01-15T07:48:59;5.72;;;0.88;;
54201;SDS011;40108;53.152;5.844;2024-01-15T07:51:24;10.20;;;1.45;;
54201;SDS011;40108;53.152;5.844;2024-01-15T07:53:50;6.60;;;1.10;;
54201;SDS011;40108;53.152;5.844;2024-01-15T07:56:18;11.30;;;1.08;;
54201;SDS011;40108;53.152;5.844;2024-01-15T07:58:44;6.85;;;0.82;;
54201;SDS011;40108;53.152;5.844;2024-01-15T08:01:10;6.75;;;0.77;;
54201;SDS011;40108;53.152;5.844;2024-01-15T08:03:35;5.85;;;0.88;;
54201;SDS011;40108;53.152;5.844;2024-01-15T08:06:01;3.65;;;0.57;;
54201;SDS011;40108;53.152;5.844;2024-01-15T08:08:27;6.28;;;1.35;;
54201;SDS011;40108;53.152;5.844;2024-01-15T08:10:53;8.32;;;0.60;;
54201;SDS011;40108;53.152;5.844;2024-01-15T08:13:18;3.75;;;0.40;;
54201;SDS011;40108;53.152;5.844;2024-01-15T08:15:45;6.97;;;0.80;;
54201;SDS011;40108;53.152;5.844;2024-01-15T08:18:11;4.53;;;0.90;;
54201;SDS011;40108;53.152;5.844;2024-01-15T08:20:37;13.13;;;2.05;;
54201;SDS011;40108;53.152;5.844;2024-01-15T08:23:03;8.95;;;1.40;;
54201;SDS011;40108;53.152;5.844;2024-01-15T08:25:29;13.50;;;1.35;;
54201;SDS011;40108;53.152;5.844;2024-01-15T08:27:56;12.27;;;1.42;;
54201;SDS011;40108;53.152;5.844;2024-01-15T08:30:25;12.82;;;1.40;;
54201;SDS011;40108;53.152;5.844;2024-01-15T08:32:55;11.20;;;1.60;;
54201;SDS011;40108;53.152;5.844;2024-01-15T08:35:21;11.07;;;1.25;;
54201;SDS011;40108;53.152;5.844;2024-01-15T08:37:50;9.38;;;1.08;;
54201;SDS011;40108;53.152;5.844;2024-01-15T08:40:17;16.33;;;1.63;;
54201;SDS011;40108;53.152;5.844;2024-01-15T08:42:43;10.63;;;1.58;;
54201;SDS011;40108;53.152;5.844;2024-01-15T08:45:10;10.20;;;1.65;;
54201;SDS011;40108;53.152;5.844;2024-01-15T08:47:36;6.38;;;1.20;;
54201;SDS011;40108;53.152;5.844;2024-01-15T08:50:02;7.75;;;2.13;;
54201;SDS011;40108;53.152;5.844;2024-01-15T08:52:28;10.50;;;1.20;;
54201;SDS011;40108;53.152;5.844;2024-01-15T08:54:55;6.60;;;1.05;;
54201;SDS011;40108;53.152;5.844;2024-01-15T08:57:21;16.55;;;1.98;;
54201;SDS011;40108;53.152;5.844;2024-01-15T08:59:47;12.25;;;1.42;;
54201;SDS011;40108;53.152;5.844;2024-01-15T09:02:13;7.68;;;1.48;;
54201;SDS011;40108;53.152;5.844;2024-01-15T09:04:39;13.52;;;1.50;;
54201;SDS011;40108;53.152;5.844;2024-01-15T09:07:06;12.35;;;1.33;;
54201;SDS011;40108;53.152;5.844;2024-01-15T09:09:32;18.83;;;1.73;;
54201;SDS011;40108;53.152;5.844;2024-01-15T09:11:59;17.33;;;2.00;;
54201;SDS011;40108;53.152;5.844;2024-01-15T09:14:24;9.88;;;1.10;;
54201;SDS011;40108;53.152;5.844;2024-01-15T09:16:52;10.68;;;1.90;;
54201;SDS011;40108;53.152;5.844;2024-01-15T09:19:18;12.88;;;1.77;;
54201;SDS011;40108;53.152;5.844;2024-01-15T09:21:44;11.38;;;1.40;;
54201;SDS011;40108;53.152;5.844;2024-01-15T09:24:10;13.45;;;1.85;;
54201;SDS011;40108;53.152;5.844;2024-01-15T09:26:36;9.68;;;1.55;;
54201;SDS011;40108;53.152;5.844;2024-01-15T09:29:02;18.05;;;2.30;;
54201;SDS011;40108;53.152;5.844;2024-01-15T09:31:28;6.95;;;1.02;;
54201;SDS011;40108;53.152;5.844;2024-01-15T09:33:54;10.80;;;1.10;;
54201;SDS011;40108;53.152;5.844;2024-01-15T09:36:25;5.35;;;1.17;;
54201;SDS011;40108;53.152;5.844;2024-01-15T09:38:51;4.15;;;0.63;;
54201;SDS011;40108;53.152;5.844;2024-01-15T09:41:16;14.45;;;1.65;;
54201;SDS011;40108;53.152;5.844;2024-01-15T09:43:42;8.65;;;1.20;;
54201;SDS011;40108;53.152;5.844;2024-01-15T09:46:08;9.45;;;1.23;;
54201;SDS011;40108;53.152;5.844;2024-01-15T09:48:34;8.45;;;2.10;;
54201;SDS011;40108;53.152;5.844;2024-01-15T09:51:03;4.63;;;0.70;;
54201;SDS011;40108;53.152;5.844;2024-01-15T09:53:30;3.38;;;0.60;;
54201;SDS011;40108;53.152;5.844;2024-01-15T09:55:57;5.95;;;0.50;;
54201;SDS011;40108;53.152;5.844;2024-01-15T09:58:23;7.78;;;0.70;;
54201;SDS011;40108;53.152;5.844;2024-01-15T10:00:49;5.57;;;0.80;;
54201;SDS011;40108;53.152;5.844;2024-01-15T10:03:16;9.10;;;1.15;;
54201;SDS011;40108;53.152;5.844;2024-01-15T10:05:43;9.85;;;1.08;;
54201;SDS011;40108;53.152;5.844;2024-01-15T10:08:09;5.10;;;0.90;;
54201;SDS011;40108;53.152;5.844;2024-01-15T10:10:36;6.43;;;0.77;;
54201;SDS011;40108;53.152;5.844;2024-01-15T10:13:03;4.32;;;0.50;;
54201;SDS011;40108;53.152;5.844;2024-01-15T10:15:30;3.97;;;0.52;;
54201;SDS011;40108;53.152;5.844;2024-01-15T10:18:00;5.35;;;0.52;;
54201;SDS011;40108;53.152;5.844;2024-01-15T10:20:26;1.52;;;0.68;;
54201;SDS011;40108;53.152;5.844;2024-01-15T10:22:51;2.25;;;0.10;;
54201;SDS011;40108;53.152;5.844;2024-01-15T10:25:17;3.83;;;0.57;;
54201;SDS011;40108;53.152;5.844;2024-01-15T10:27:58;0.70;;;0.17;;
54201;SDS011;40108;53.152;5.844;2024-01-15T10:30:28;8.02;;;0.75;;
54201;SDS011;40108;53.152;5.844;2024-01-15T10:33:01;5.32;;;0.70;;
54201;SDS011;40108;53.152;5.844;2024-01-15T10:35:29;6.28;;;0.85;;
54201;SDS011;40108;53.152;5.844;2024-01-15T10:37:55;6.20;;;0.70;;
54201;SDS011;40108;53.152;5.844;2024-01-15T10:40:21;9.05;;;1.75;;
54201;SDS011;40108;53.152;5.844;2024-01-15T10:42:47;10.88;;;1.05;;
54201;SDS011;40108;53.152;5.844;2024-01-15T10:45:13;8.80;;;1.00;;
54201;SDS011;40108;53.152;5.844;2024-01-15T10:47:40;11.13;;;1.23;;
54201;SDS011;40108;53.152;5.844;2024-01-15T10:50:07;8.73;;;1.40;;
54201;SDS011;40108;53.152;5.844;2024-01-15T10:52:36;22.38;;;1.85;;
54201;SDS011;40108;53.152;5.844;2024-01-15T10:55:05;13.65;;;1.33;;
54201;SDS011;40108;53.152;5.844;2024-01-15T10:57:34;17.08;;;1.50;;
54201;SDS011;40108;53.152;5.844;2024-01-15T11:00:02;13.25;;;1.52;;
54201;SDS011;40108;53.152;5.844;2024-01-15T11:02:31;12.45;;;2.05;;
54201;SDS011;40108;53.152;5.844;2024-01-15T11:04:59;5.50;;;0.93;;
54201;SDS011;40108;53.152;5.844;2024-01-15T11:07:25;10.57;;;1.10;;
54201;SDS011;40108;53.152;5.844;2024-01-15T11:09:52;6.63;;;0.98;;
54201;SDS011;40108;53.152;5.844;2024-01-15T11:12:18;6.85;;;0.70;;
54201;SDS011;40108;53.152;5.844;2024-01-15T11:14:48;6.88;;;0.90;;
54201;SDS011;40108;53.152;5.844;2024-01-15T11:17:15;10.73;;;1.20;;
54201;SDS011;40108;53.152;5.844;2024-01-15T11:25:17;7.78;;;1.10;;
54201;SDS011;40108;53.152;5.844;2024-01-15T11:27:44;8.30;;;1.10;;
54201;SDS011;40108;53.152;5.844;2024-01-15T11:30:18;5.47;;;0.90;;
54201;SDS011;40108;53.152;5.844;2024-01-15T11:32:45;5.60;;;1.10;;
54201;SDS011;40108;53.152;5.844;2024-01-15T11:35:11;5.72;;;0.95;;
54201;SDS011;40108;53.152;5.844;2024-01-15T11:42:58;3.00;;;0.60;;
54201;SDS011;40108;53.152;5.844;2024-01-15T11:45:24;7.18;;;0.80;;
54201;SDS011;40108;53.152;5.844;2024-01-15T11:50:35;5.53;;;1.00;;
54201;SDS011;40108;53.152;5.844;2024-01-15T11:53:16;7.03;;;1.17;;
54201;SDS011;40108;53.152;5.844;2024-01-15T11:55:46;9.27;;;1.35;;
54201;SDS011;40108;53.152;5.844;2024-01-15T11:58:13;8.20;;;0.90;;
54201;SDS011;40108;53.152;5.844;2024-01-15T12:00:43;16.73;;;1.45;;
54201;SDS011;40108;53.152;5.844;2024-01-15T12:03:10;10.75;;;1.35;;
54201;SDS011;40108;53.152;5.844;2024-01-15T12:05:36;11.70;;;1.20;;
54201;SDS011;40108;53.152;5.844;2024-01-15T12:08:03;10.90;;;1.27;;
54201;SDS011;40108;53.152;5.844;2024-01-15T12:10:36;14.93;;;2.88;;
54201;SDS011;40108;53.152;5.844;2024-01-15T12:13:12;12.82;;;1.17;;
54201;SDS011;40108;53.152;5.844;2024-01-15T12:15:39;10.80;;;1.48;;
54201;SDS011;40108;53.152;5.844;2024-01-15T12:18:09;8.75;;;1.20;;
54201;SDS011;40108;53.152;5.844;2024-01-15T12:20:36;11.63;;;1.05;;
54201;SDS011;40108;53.152;5.844;2024-01-15T12:23:03;7.47;;;1.27;;
54201;SDS011;40108;53.152;5.844;2024-01-15T12:25:29;9.35;;;1.05;;
54201;SDS011;40108;53.152;5.844;2024-01-15T12:27:56;9.95;;;1.00;;
54201;SDS011;40108;53.152;5.844;2024-01-15T12:30:22;9.70;;;1.05;;
54201;SDS011;40108;53.152;5.844;2024-01-15T12:32:48;10.07;;;1.00;;
54201;SDS011;40108;53.152;5.844;2024-01-15T12:35:14;7.07;;;1.10;;
54201;SDS011;40108;53.152;5.844;2024-01-15T12:37:43;6.28;;;1.20;;
54201;SDS011;40108;53.152;5.844;2024-01-15T12:40:11;11.20;;;1.73;;
54201;SDS011;40108;53.152;5.844;2024-01-15T12:42:37;11.00;;;1.48;;
54201;SDS011;40108;53.152;5.844;2024-01-15T12:45:08;13.95;;;1.48;;
54201;SDS011;40108;53.152;5.844;2024-01-15T12:47:35;18.05;;;1.92;;
54201;SDS011;40108;53.152;5.844;2024-01-15T12:50:01;12.88;;;1.90;;
54201;SDS011;40108;53.152;5.844;2024-01-15T12:52:28;17.63;;;2.20;;
54201;SDS011;40108;53.152;5.844;2024-01-15T12:54:54;16.02;;;1.90;;
54201;SDS011;40108;53.152;5.844;2024-01-15T12:57:21;21.60;;;3.22;;
54201;SDS011;40108;53.152;5.844;2024-01-15T12:59:47;14.05;;;2.63;;
54201;SDS011;40108;53.152;5.844;2024-01-15T13:02:13;13.90;;;2.45;;
54201;SDS011;40108;53.152;5.844;2024-01-15T13:04:39;19.15;;;2.60;;
54201;SDS011;40108;53.152;5.844;2024-01-15T13:07:08;13.38;;;1.95;;
54201;SDS011;40108;53.152;5.844;2024-01-15T13:09:34;17.33;;;2.65;;
54201;SDS011;40108;53.152;5.844;2024-01-15T13:12:01;18.70;;;2.45;;
54201;SDS011;40108;53.152;5.844;2024-01-15T13:14:27;21.95;;;2.30;;
54201;SDS011;40108;53.152;5.844;2024-01-15T13:16:53;17.85;;;2.10;;
54201;SDS011;40108;53.152;5.844;2024-01-15T13:19:20;20.10;;;2.45;;
54201;SDS011;40108;53.152;5.844;2024-01-15T13:21:48;12.80;;;1.90;;
54201;SDS011;40108;53.152;5.844;2024-01-15T13:24:16;18.95;;;2.33;;
54201;SDS011;40108;53.152;5.844;2024-01-15T13:26:45;21.45;;;2.70;;
54201;SDS011;40108;53.152;5.844;2024-01-15T13:29:11;15.77;;;2.88;;
54201;SDS011;40108;53.152;5.844;2024-01-15T13:31:36;18.77;;;2.63;;
54201;SDS011;40108;53.152;5.844;2024-01-15T13:34:03;15.85;;;2.22;;
54201;SDS011;40108;53.152;5.844;2024-01-15T13:36:29;15.40;;;2.42;;
54201;SDS011;40108;53.152;5.844;2024-01-15T13:38:54;13.93;;;2.17;;
54201;SDS011;40108;53.152;5.844;2024-01-15T13:41:21;11.13;;;1.13;;
54201;SDS011;40108;53.152;5.844;2024-01-15T13:43:50;5.43;;;0.70;;
54201;SDS011;40108;53.152;5.844;2024-01-15T13:48:46;6.38;;;1.05;;
54201;SDS011;40108;53.152;5.844;2024-01-15T13:51:12;12.10;;;1.17;;
54201;SDS011;40108;53.152;5.844;2024-01-15T13:53:38;9.35;;;1.52;;
54201;SDS011;40108;53.152;5.844;2024-01-15T13:56:05;16.38;;;1.55;;
54201;SDS011;40108;53.152;5.844;2024-01-15T13:58:31;16.08;;;2.13;;
54201;SDS011;40108;53.152;5.844;2024-01-15T14:01:00;22.58;;;2.72;;
54201;SDS011;40108;53.152;5.844;2024-01-15T14:03:28;24.02;;;2.22;;
54201;SDS011;40108;53.152;5.844;2024-01-15T14:05:53;11.95;;;2.08;;
54201;SDS011;40108;53.152;5.844;2024-01-15T14:08:19;16.35;;;2.53;;
54201;SDS011;40108;53.152;5.844;2024-01-15T14:10:45;13.15;;;2.10;;
54201;SDS011;40108;53.152;5.844;2024-01-15T14:13:10;15.75;;;1.85;;
54201;SDS011;40108;53.152;5.844;2024-01-15T14:15:36;18.48;;;2.20;;
54201;SDS011;40108;53.152;5.844;2024-01-15T14:18:02;17.65;;;1.98;;
54201;SDS011;40108;53.152;5.844;2024-01-15T14:20:28;12.98;;;1.77;;
54201;SDS011;40108;53.152;5.844;2024-01-15T14:22:53;12.38;;;1.50;;
54201;SDS011;40108;53.152;5.844;2024-01-15T14:25:22;5.05;;;1.40;;
54201;SDS011;40108;53.152;5.844;2024-01-15T14:27:49;4.45;;;0.88;;
54201;SDS011;40108;53.152;5.844;2024-01-15T14:30:15;7.50;;;1.38;;
54201;SDS011;40108;53.152;5.844;2024-01-15T14:32:44;4.22;;;0.30;;
54201;SDS011;40108;53.152;5.844;2024-01-15T14:35:10;2.10;;;0.30;;
54201;SDS011;40108;53.152;5.844;2024-01-15T14:37:38;2.00;;;0.30;;
54201;SDS011;40108;53.152;5.844;2024-01-15T14:40:08;4.18;;;0.35;;
54201;SDS011;40108;53.152;5.844;2024-01-15T14:42:35;4.07;;;0.30;;
54201;SDS011;40108;53.152;5.844;2024-01-15T14:45:02;3.63;;;0.43;;
54201;SDS011;40108;53.152;5.844;2024-01-15T14:47:36;4.05;;;0.50;;
54201;SDS011;40108;53.152;5.844;2024-01-15T14:50:03;3.20;;;0.47;;